Time;durP1;ratioP1;P1;durP2;ratioP2;P2;SDS_P1;SDS_P2;PMS_P1;PMS_P2;Temp;Humidity;BMP_temperature;BMP_pressure;BME280_temperature;BME280_humidity;BME280_pressure;Samples;Min_cycle;Max_cycle;Signal;HPM_P1;HPM_P2
2023/01/12 00:01:37;;;;;;;17.92;11.82;;;;;;;0.41;100.00;93183.28;5061610;28;20558;-68
2023/01/12 00:04:04;;;;;;;16.63;10.70;;;;;;;0.32;100.00;93184.97;5061068;28;20053;-69
2023/01/12 00:06:33;;;;;;;16.33;11.57;;;;;;;0.32;100.00;93179.94;5059577;28;21689;-69
2023/01/12 00:09:02;;;;;;;17.30;10.63;;;;;;;0.34;100.00;93184.84;5060841;28;20048;-68
2023/01/12 00:11:29;;;;;;;17.63;11.75;;;;;;;0.34;100.00;93184.84;5070409;28;20048;-69
2023/01/12 00:13:56;;;;;;;15.95;10.13;;;;;;;0.37;100.00;93187.09;5070147;28;20074;-69
2023/01/12 00:16:36;;;;;;;20.73;11.55;;;;;;;0.35;100.00;93189.75;5070689;28;20044;-69
2023/01/12 00:19:09;;;;;;;24.95;13.93;;;;;;;0.39;100.00;93190.25;5070717;28;20084;-68
2023/01/12 00:21:51;;;;;;;25.90;13.80;;;;;;;0.44;100.00;93183.00;5044656;28;20045;-68
2023/01/12 00:24:19;;;;;;;14.80;9.48;;;;;;;0.47;100.00;93192.81;5067985;28;20052;-69
2023/01/12 00:26:46;;;;;;;16.38;11.10;;;;;;;0.46;100.00;93198.81;5059792;28;20086;-69
2023/01/12 00:29:13;;;;;;;16.70;9.73;;;;;;;0.52;100.00;93197.44;5070217;28;20048;-69
2023/01/12 00:31:40;;;;;;;14.32;9.75;;;;;;;0.46;100.00;93192.97;5069943;28;20045;-69
2023/01/12 00:34:06;;;;;;;12.63;8.32;;;;;;;0.50;100.00;93197.59;5070577;28;20451;-69
2023/01/12 00:36:33;;;;;;;11.93;8.52;;;;;;;0.53;100.00;93204.06;5069945;28;20514;-69
2023/01/12 00:39:01;;;;;;;12.25;8.13;;;;;;;0.49;100.00;93197.72;5070025;28;20052;-69
2023/01/12 00:46:56;;;;;;;12.07;8.25;;;;;;;0.65;100.00;93214.75;5069732;28;20462;-69
2023/01/12 00:49:23;;;;;;;13.18;9.05;;;;;;;0.75;100.00;93202.78;5069968;28;20049;-69
2023/01/12 00:51:49;;;;;;;17.73;11.77;;;;;;;0.73;100.00;93212.25;5069516;28;20040;-69
2023/01/12 00:54:17;;;;;;;18.33;11.60;;;;;;;0.64;100.00;93218.19;5069695;28;20409;-69
2023/01/12 00:56:44;;;;;;;15.20;10.23;;;;;;;0.59;100.00;93223.69;5070069;28;20374;-69
2023/01/12 00:59:11;;;;;;;18.33;11.63;;;;;;;0.56;100.00;93218.16;5069288;28;20094;-69
2023/01/12 01:01:38;;;;;;;15.98;11.18;;;;;;;0.58;100.00;93216.25;5070095;28;20045;-69
2023/01/12 01:04:05;;;;;;;24.80;13.00;;;;;;;0.63;100.00;93214.09;5069505;28;20095;-69
2023/01/12 01:06:31;;;;;;;22.40;13.15;;;;;;;0.68;100.00;93218.72;5069179;28;20045;-69
2023/01/12 01:08:58;;;;;;;16.52;11.80;;;;;;;0.70;100.00;93220.16;5067314;28;20114;-71
2023/01/12 01:11:26;;;;;;;17.10;11.52;;;;;;;0.75;100.00;93222.22;5055859;28;20044;-70
2023/01/12 01:13:54;;;;;;;16.45;11.90;;;;;;;0.83;100.00;93219.72;5068968;28;20052;-69
2023/01/12 01:16:21;;;;;;;15.75;10.55;;;;;;;0.80;100.00;93225.09;5069511;28;20094;-70
2023/01/12 01:18:48;;;;;;;16.05;11.30;;;;;;;0.79;100.00;93224.28;5069287;28;20040;-70
2023/01/12 01:21:14;;;;;;;19.10;12.52;;;;;;;0.92;100.00;93223.91;5069388;28;20102;-70
2023/01/12 01:23:42;;;;;;;12.55;9.35;;;;;;;0.92;100.00;93230.69;5069357;28;20041;-70
2023/01/12 01:26:12;;;;;;;12.73;8.85;;;;;;;0.95;100.00;93227.06;5063569;28;20102;-70
2023/01/12 01:28:40;;;;;;;15.52;9.68;;;;;;;0.95;100.00;93229.59;5057974;28;20056;-70
2023/01/12 01:31:09;;;;;;;13.32;9.00;;;;;;;1.02;100.00;93233.91;5056203;28;20040;-71
2023/01/12 01:33:36;;;;;;;15.75;10.55;;;;;;;1.04;100.00;93226.97;5058479;28;21591;-70
2023/01/12 01:36:04;;;;;;;13.05;8.77;;;;;;;0.89;100.00;93216.59;5060327;28;20044;-70
2023/01/12 01:38:30;;;;;;;12.88;8.95;;;;;;;1.09;100.00;93225.72;5059074;28;20056;-71
2023/01/12 01:40:57;;;;;;;15.32;11.15;;;;;;;0.92;100.00;93211.25;5057631;28;20097;-70
2023/01/12 01:43:26;;;;;;;12.52;9.35;;;;;;;1.11;100.00;93224.63;5059783;28;20098;-70
2023/01/12 01:46:00;;;;;;;14.88;9.50;;;;;;;1.13;100.00;93227.81;5051305;28;20434;-70
2023/01/12 01:48:30;;;;;;;17.42;11.27;;;;;;;0.95;100.00;93225.34;5048670;28;20513;-70
2023/01/12 01:51:02;;;;;;;15.00;9.90;;;;;;;0.96;100.00;93226.91;5048611;28;20451;-69
2023/01/12 01:53:35;;;;;;;17.10;9.90;;;;;;;1.11;100.00;93227.16;5048784;28;20040;-70
2023/01/12 01:56:05;;;;;;;19.63;11.73;;;;;;;1.25;100.00;93225.78;5048630;28;20052;-70
2023/01/12 01:58:38;;;;;;;13.70;9.65;;;;;;;1.10;100.00;93232.38;5048503;28;20382;-70
2023/01/12 02:01:08;;;;;;;18.20;10.98;;;;;;;1.17;100.00;93225.75;5048678;28;20057;-70
2023/01/12 02:03:36;;;;;;;19.25;11.90;;;;;;;1.34;100.00;93231.66;5048537;28;20045;-70
2023/01/12 02:06:02;;;;;;;17.27;11.60;;;;;;;1.47;100.00;93236.31;5048270;28;20103;-69
2023/01/12 02:08:34;;;;;;;18.15;11.60;;;;;;;1.56;100.00;93242.19;5048377;28;20099;-70
2023/01/12 02:11:02;;;;;;;20.92;12.98;;;;;;;1.69;100.00;93234.16;5048307;28;20053;-69
2023/01/12 02:16:22;;;;;;;22.63;12.45;;;;;;;1.86;100.00;93230.72;5048262;28;20134;-70
2023/01/12 02:18:56;;;;;;;17.80;11.07;;;;;;;1.94;100.00;93226.63;5048610;28;20493;-70
2023/01/12 02:22:20;;;;;;;17.30;10.13;;;;;;;1.97;100.00;93222.03;5052515;28;20094;-70
2023/01/12 02:25:10;;;;;;;16.07;10.70;;;;;;;2.05;100.00;93221.25;4988588;28;20050;-69
2023/01/12 02:27:53;;;;;;;16.60;9.55;;;;;;;2.09;100.00;93227.56;4971771;28;20351;-69
2023/01/12 02:30:47;;;;;;;15.40;9.13;;;;;;;2.13;100.00;93233.16;5033874;28;20448;-70
2023/01/12 02:33:27;;;;;;;14.02;9.77;;;;;;;2.13;100.00;93231.38;5052358;28;20048;-69
2023/01/12 02:36:01;;;;;;;17.05;9.40;;;;;;;2.14;100.00;93232.97;5051834;28;20549;-69
2023/01/12 02:38:37;;;;;;;14.43;9.35;;;;;;;2.10;100.00;93215.72;5052021;28;20047;-69
2023/01/12 02:41:13;;;;;;;13.70;9.52;;;;;;;2.23;100.00;93231.22;5051966;28;20551;-70
2023/01/12 02:43:40;;;;;;;;;;;;;;;2.26;100.00;93235.19;5052658;28;20041;-70
2023/01/12 02:46:14;;;;;;;15.40;8.65;;;;;;;2.08;100.00;93238.66;5052137;28;19925;-69
2023/01/12 02:48:47;;;;;;;14.73;9.25;;;;;;;2.12;100.00;93242.47;5052050;28;20111;-69
2023/01/12 02:51:22;;;;;;;15.70;9.88;;;;;;;2.14;100.00;93245.63;5051579;28;20094;-69
2023/01/12 02:53:52;;;;;;;16.05;9.40;;;;;;;2.10;100.00;93231.72;5051720;28;20459;-69
2023/01/12 02:56:23;;;;;;;14.18;9.15;;;;;;;2.13;100.00;93240.75;5051895;28;20102;-69
2023/01/12 02:58:54;;;;;;;14.80;9.13;;;;;;;1.97;100.00;93247.38;5051954;28;20053;-69
2023/01/12 03:01:24;;;;;;;11.13;7.82;;;;;;;1.93;100.00;93248.63;5051722;28;20084;-69
2023/01/12 03:03:55;;;;;;;12.18;8.85;;;;;;;1.42;100.00;93226.66;5051863;28;20049;-70
2023/01/12 03:06:22;;;;;;;11.45;8.43;;;;;;;1.39;100.00;93221.09;5051700;28;20098;-70
2023/01/12 03:08:51;;;;;;;11.27;8.15;;;;;;;1.50;100.00;93235.22;5051491;28;20488;-70
2023/01/12 03:11:20;;;;;;;13.38;8.45;;;;;;;1.56;100.00;93237.13;5051641;28;20906;-70
2023/01/12 03:13:50;;;;;;;15.10;9.50;;;;;;;1.60;100.00;93234.16;5051330;28;20095;-70
2023/01/12 03:16:20;;;;;;;13.02;9.30;;;;;;;1.52;100.00;93235.88;5051074;28;20087;-70
2023/01/12 03:18:54;;;;;;;10.77;7.85;;;;;;;1.46;100.00;93240.59;5051504;28;20041;-70
2023/01/12 03:21:29;;;;;;;11.00;8.35;;;;;;;1.33;100.00;93235.94;5051321;28;20106;-70
2023/01/12 03:23:59;;;;;;;13.45;7.95;;;;;;;1.16;100.00;93240.13;5051372;28;20045;-69
2023/01/12 03:26:29;;;;;;;11.13;7.70;;;;;;;1.27;100.00;93238.28;5051415;28;20045;-69
2023/01/12 03:29:03;;;;;;;11.48;8.45;;;;;;;1.18;100.00;93233.22;5056724;28;20094;-70
2023/01/12 03:31:31;;;;;;;11.15;7.90;;;;;;;1.21;100.00;93232.09;5070501;28;20044;-69
2023/01/12 03:34:00;;;;;;;12.30;8.90;;;;;;;1.26;100.00;93234.97;5071049;28;20040;-69
2023/01/12 03:36:35;;;;;;;13.70;8.95;;;;;;;1.20;100.00;93211.06;5071098;28;20044;-70
2023/01/12 03:39:09;;;;;;;14.73;10.70;;;;;;;1.37;100.00;93231.38;5070687;28;20098;-70
2023/01/12 03:41:46;;;;;;;13.75;9.02;;;;;;;1.26;100.00;93224.06;5070503;28;20458;-70
2023/01/12 03:44:20;;;;;;;11.98;8.52;;;;;;;1.22;100.00;93220.22;5071072;28;20056;-70
2023/01/12 03:46:53;;;;;;;11.98;8.73;;;;;;;1.18;100.00;93219.75;5070692;28;20562;-70
2023/01/12 03:49:29;;;;;;;13.10;9.20;;;;;;;1.20;100.00;93210.25;5071009;28;20090;-70
2023/01/12 03:51:58;;;;;;;15.98;10.68;;;;;;;1.35;100.00;93219.81;5070384;28;20053;-70
2023/01/12 03:54:27;;;;;;;14.18;10.02;;;;;;;1.41;100.00;93221.72;5070844;28;20090;-70
2023/01/12 03:56:55;;;;;;;13.70;9.07;;;;;;;1.46;100.00;93230.47;5070167;28;20118;-70
2023/01/12 03:59:22;;;;;;;16.23;11.32;;;;;;;1.48;100.00;93225.22;5070888;28;20052;-70
2023/01/12 04:01:50;;;;;;;16.65;11.88;;;;;;;1.59;100.00;93224.16;5070625;28;20048;-70
2023/01/12 04:04:17;;;;;;;17.58;11.98;;;;;;;1.67;100.00;93221.66;5070176;28;20055;-70
2023/01/12 04:06:45;;;;;;;16.67;10.35;;;;;;;1.75;100.00;93215.03;5070268;28;20090;-70
2023/01/12 04:09:11;;;;;;;14.63;10.13;;;;;;;1.80;100.00;93218.66;5070530;28;20044;-71
2023/01/12 04:14:22;;;;;;;13.98;8.23;;;;;;;1.82;100.00;93221.06;5070207;28;20052;-70
2023/01/12 04:16:49;;;;;;;13.32;8.90;;;;;;;1.87;100.00;93228.97;5070411;28;20040;-71
2023/01/12 04:19:16;;;;;;;11.90;7.65;;;;;;;1.76;100.00;93219.16;5069836;28;20040;-70
2023/01/12 04:24:28;;;;;;;10.93;7.75;;;;;;;1.65;100.00;93215.16;5068293;28;20059;-70
2023/01/12 04:26:55;;;;;;;10.25;7.15;;;;;;;1.65;100.00;93220.22;5068930;28;20048;-70
2023/01/12 04:29:21;;;;;;;13.30;9.40;;;;;;;1.66;100.00;93226.88;5070010;28;20064;-70
2023/01/12 04:31:48;;;;;;;16.33;10.45;;;;;;;1.64;100.00;93211.84;5069645;28;20048;-70
2023/01/12 04:34:15;;;;;;;17.15;10.73;;;;;;;1.80;100.00;93221.19;5069656;28;20545;-69
2023/01/12 04:36:42;;;;;;;16.17;10.10;;;;;;;1.89;100.00;93228.84;5069842;28;20052;-70
2023/01/12 04:39:09;;;;;;;16.65;9.85;;;;;;;1.84;100.00;93232.63;5066877;28;20051;-70
2023/01/12 04:41:37;;;;;;;13.13;8.27;;;;;;;1.59;100.00;93236.81;5049377;28;20045;-70
2023/01/12 04:44:04;;;;;;;11.93;8.68;;;;;;;1.48;100.00;93232.81;5057180;28;20493;-69
2023/01/12 04:46:31;;;;;;;13.60;8.55;;;;;;;1.57;100.00;93234.44;5047415;28;20489;-70
2023/01/12 04:48:57;;;;;;;12.25;8.20;;;;;;;1.65;100.00;93236.22;5054741;28;20082;-69
2023/01/12 04:51:25;;;;;;;11.40;8.05;;;;;;;1.65;100.00;93236.22;5069341;28;20052;-69
2023/01/12 04:53:52;;;;;;;11.98;7.53;;;;;;;1.68;100.00;93238.44;5069564;28;20090;-69
2023/01/12 04:56:19;;;;;;;11.93;7.57;;;;;;;1.62;100.00;93246.63;5069195;28;20126;-70
2023/01/12 04:58:47;;;;;;;13.20;8.40;;;;;;;1.55;100.00;93246.47;5069348;28;20125;-70
2023/01/12 05:01:16;;;;;;;15.35;10.05;;;;;;;1.55;100.00;93241.41;5068904;28;20542;-70
2023/01/12 05:03:43;;;;;;;11.15;8.40;;;;;;;1.38;100.00;93234.72;5069219;28;20098;-70
2023/01/12 05:06:11;;;;;;;13.63;9.63;;;;;;;1.60;100.00;93251.06;5069328;28;20075;-69
2023/01/12 05:11:27;;;;;;;11.60;7.97;;;;;;;1.65;100.00;93256.47;5068923;28;20056;-69
2023/01/12 05:13:55;;;;;;;12.70;9.55;;;;;;;1.77;100.00;93259.53;5069001;28;20865;-70
2023/01/12 05:16:23;;;;;;;11.32;8.38;;;;;;;1.82;100.00;93262.38;5069140;28;20044;-69
2023/01/12 05:18:52;;;;;;;11.48;8.27;;;;;;;1.78;100.00;93260.28;5068989;28;20044;-69
2023/01/12 05:21:20;;;;;;;9.48;6.63;;;;;;;1.70;100.00;93266.94;5069152;28;20162;-70
2023/01/12 05:23:47;;;;;;;11.60;7.78;;;;;;;1.78;100.00;93275.50;5068934;28;20499;-70
2023/01/12 05:26:14;;;;;;;11.10;7.68;;;;;;;1.72;100.00;93281.97;5068665;28;20492;-70
2023/01/12 05:28:41;;;;;;;11.23;8.50;;;;;;;1.76;100.00;93285.00;5068988;28;20463;-70
2023/01/12 05:31:11;;;;;;;10.95;8.85;;;;;;;1.71;100.00;93281.16;5068795;28;20094;-70
2023/01/12 05:33:39;;;;;;;11.45;8.13;;;;;;;1.76;100.00;93288.31;5068917;28;20086;-70
2023/01/12 05:36:08;;;;;;;11.88;8.40;;;;;;;1.81;100.00;93298.00;5068698;28;20516;-70
2023/01/12 05:38:35;;;;;;;12.20;8.35;;;;;;;1.77;100.00;93292.44;5068699;28;20113;-70
2023/01/12 05:41:02;;;;;;;11.45;7.72;;;;;;;1.79;100.00;93292.28;5068855;28;20056;-70
2023/01/12 05:46:15;;;;;;;8.80;6.18;;;;;;;1.44;100.00;93290.56;5068888;28;20048;-70
2023/01/12 05:48:42;;;;;;;10.77;7.00;;;;;;;1.30;100.00;93293.66;5068512;28;20489;-70
2023/01/12 05:51:10;;;;;;;9.32;6.70;;;;;;;1.22;100.00;93296.94;5068517;28;20037;-69
2023/01/12 05:53:37;;;;;;;12.27;7.68;;;;;;;1.06;100.00;93277.41;5068242;28;20044;-69
2023/01/12 05:56:08;;;;;;;11.63;7.60;;;;;;;1.11;100.00;93295.44;5068711;28;20059;-70
2023/01/12 05:58:35;;;;;;;12.50;9.13;;;;;;;1.16;100.00;93297.56;5068440;28;20048;-70
2023/01/12 06:01:06;;;;;;;11.90;8.73;;;;;;;1.04;100.00;93299.53;5068323;28;20056;-69
2023/01/12 06:03:34;;;;;;;15.23;10.57;;;;;;;0.85;100.00;93297.97;5068739;28;20045;-69
2023/01/12 06:06:02;;;;;;;11.57;7.97;;;;;;;0.65;100.00;93291.38;5068418;28;20102;-70
2023/01/12 06:08:28;;;;;;;15.98;9.65;;;;;;;0.63;100.00;93282.34;5068369;28;20045;-70
2023/01/12 06:10:55;;;;;;;13.60;9.52;;;;;;;0.64;100.00;93282.19;5068200;28;20036;-69
2023/01/12 06:16:08;;;;;;;14.13;9.90;;;;;;;0.82;100.00;93290.72;5068290;28;20056;-69
2023/01/12 06:18:37;;;;;;;15.80;10.95;;;;;;;1.02;100.00;93289.56;5068110;28;20050;-69
2023/01/12 06:21:05;;;;;;;13.45;8.90;;;;;;;1.08;100.00;93287.38;5064935;28;20071;-69
2023/01/12 06:23:32;;;;;;;14.93;9.80;;;;;;;1.11;100.00;93284.56;5067294;28;20036;-69
2023/01/12 06:26:00;;;;;;;13.50;9.05;;;;;;;1.20;100.00;93291.22;5068642;28;20040;-70
2023/01/12 06:28:27;;;;;;;14.63;9.70;;;;;;;1.36;100.00;93292.25;5047111;28;20256;-69
2023/01/12 06:30:58;;;;;;;15.25;10.25;;;;;;;1.36;100.00;93299.84;5068124;28;20053;-69
2023/01/12 06:33:25;;;;;;;14.70;10.32;;;;;;;1.45;100.00;93291.38;5068397;28;20168;-70
2023/01/12 06:35:54;;;;;;;15.48;10.68;;;;;;;1.36;100.00;93289.72;5068096;28;20045;-69
2023/01/12 06:38:22;;;;;;;14.55;10.25;;;;;;;1.51;100.00;93287.41;5068333;28;20087;-69
2023/01/12 06:40:49;;;;;;;18.30;12.20;;;;;;;1.46;100.00;93270.16;5068290;28;20045;-70
2023/01/12 06:43:16;;;;;;;15.02;10.50;;;;;;;1.69;100.00;93284.81;5067918;28;20090;-69
2023/01/12 06:45:43;;;;;;;15.35;10.75;;;;;;;1.81;100.00;93291.16;5067964;28;20049;-69
2023/01/12 06:48:10;;;;;;;13.77;9.25;;;;;;;1.81;100.00;93291.16;5067907;28;20036;-69
2023/01/12 06:50:37;;;;;;;13.90;9.38;;;;;;;1.75;100.00;93284.19;5068205;28;20097;-70
2023/01/12 06:53:06;;;;;;;14.73;9.68;;;;;;;1.76;100.00;93307.78;5067711;28;20391;-69
2023/01/12 06:55:33;;;;;;;14.52;9.07;;;;;;;1.73;100.00;93302.06;5067838;28;20080;-69
2023/01/12 06:58:02;;;;;;;12.48;8.80;;;;;;;1.83;100.00;93301.97;5067767;28;20060;-69
2023/01/12 07:00:29;;;;;;;14.88;10.20;;;;;;;1.84;100.00;93307.78;5067975;28;20047;-70
2023/01/12 07:02:55;;;;;;;23.95;16.23;;;;;;;1.74;100.00;93300.34;5067772;28;20053;-70
2023/01/12 07:05:22;;;;;;;25.42;17.35;;;;;;;1.74;100.00;93315.53;5069061;28;20049;-69
2023/01/12 07:07:49;;;;;;;17.63;12.00;;;;;;;1.51;100.00;93297.53;5071379;28;20090;-69
2023/01/12 07:10:17;;;;;;;12.43;8.77;;;;;;;1.57;100.00;93307.09;5071437;28;20040;-70
2023/01/12 07:12:44;;;;;;;17.48;11.27;;;;;;;1.62;100.00;93314.22;5071335;28;20048;-69
2023/01/12 07:15:11;;;;;;;15.25;10.77;;;;;;;1.73;100.00;93316.47;5071479;28;20045;-70
2023/01/12 07:17:40;;;;;;;13.68;9.70;;;;;;;1.72;100.00;93317.44;5070984;28;20052;-69
2023/01/12 07:20:08;;;;;;;11.48;8.13;;;;;;;1.71;100.00;93318.38;5071449;28;20040;-69
2023/01/12 07:22:35;;;;;;;10.52;7.20;;;;;;;1.71;100.00;93319.16;5070786;28;20058;-70
2023/01/12 07:25:02;;;;;;;15.50;9.80;;;;;;;1.73;100.00;93312.19;5071179;28;20126;-70
2023/01/12 07:27:30;;;;;;;12.73;9.55;;;;;;;1.70;100.00;93306.66;5071258;28;20048;-69
2023/01/12 07:29:56;;;;;;;12.07;8.10;;;;;;;1.77;100.00;93309.38;5071031;28;20044;-70
2023/01/12 07:32:26;;;;;;;10.77;7.63;;;;;;;1.82;100.00;93315.56;5070823;28;20094;-70
2023/01/12 07:34:52;;;;;;;10.20;7.38;;;;;;;1.94;100.00;93318.59;5070894;28;20048;-70
2023/01/12 07:37:21;;;;;;;13.38;9.80;;;;;;;1.77;100.00;93316.97;5071027;28;20099;-70
2023/01/12 07:39:48;;;;;;;9.05;6.35;;;;;;;1.73;100.00;93316.47;5070689;28;20086;-69
2023/01/12 07:42:22;;;;;;;9.80;7.07;;;;;;;1.77;100.00;93315.25;5070743;28;20419;-70
2023/01/12 07:44:50;;;;;;;13.98;8.65;;;;;;;1.87;100.00;93315.88;5070909;28;20385;-70
2023/01/12 07:47:17;;;;;;;10.32;6.65;;;;;;;2.00;100.00;93314.66;5070729;28;20464;-69
2023/01/12 07:49:44;;;;;;;13.68;9.45;;;;;;;1.97;100.00;93317.50;5070807;28;20052;-69
2023/01/12 07:52:11;;;;;;;27.48;17.27;;;;;;;2.08;100.00;93319.75;5070790;28;20094;-69
2023/01/12 07:54:37;;;;;;;17.00;11.23;;;;;;;2.01;100.00;93290.91;5070650;28;20044;-69
2023/01/12 07:57:04;;;;;;;13.50;9.40;;;;;;;2.36;100.00;93314.41;5070298;28;20086;-70
2023/01/12 07:59:31;;;;;;;13.32;7.00;;;;;;;2.46;100.00;93321.88;5070336;28;20424;-70
2023/01/12 08:01:59;;;;;;;12.13;7.30;;;;;;;2.55;100.00;93315.09;5070717;28;20080;-70
2023/01/12 08:04:26;;;;;;;10.50;6.50;;;;;;;2.67;100.00;93320.63;5070517;28;20451;-70
2023/01/12 08:06:53;;;;;;;7.95;5.35;;;;;;;2.64;100.00;93318.41;5052678;28;20110;-70
2023/01/12 08:09:19;;;;;;;6.47;4.82;;;;;;;2.66;100.00;93331.72;5050540;28;20161;-69
2023/01/12 08:11:46;;;;;;;6.25;4.40;;;;;;;2.47;100.00;93328.56;5050195;28;20090;-69
2023/01/12 08:14:23;;;;;;;5.15;4.00;;;;;;;2.45;100.00;93335.50;5050459;28;20041;-69
2023/01/12 08:16:52;;;;;;;6.38;4.70;;;;;;;2.53;100.00;93334.72;5050030;28;20496;-69
2023/01/12 08:19:24;;;;;;;5.43;3.90;;;;;;;2.31;100.00;93331.06;5050266;28;20095;-69
2023/01/12 08:21:57;;;;;;;7.05;4.43;;;;;;;2.34;100.00;93323.94;5050279;28;20049;-69
2023/01/12 08:24:29;;;;;;;5.75;4.43;;;;;;;2.42;100.00;93320.63;5050154;28;20037;-69
2023/01/12 08:26:58;;;;;;;5.22;3.95;;;;;;;2.39;100.00;93331.06;5049921;28;20041;-69
2023/01/12 08:29:31;;;;;;;7.47;5.00;;;;;;;2.36;100.00;93332.16;5059461;28;20048;-69
2023/01/12 08:31:59;;;;;;;6.07;4.82;;;;;;;2.47;100.00;93332.81;5069667;28;20048;-69
2023/01/12 08:34:35;;;;;;;7.30;5.07;;;;;;;2.42;100.00;93323.16;5069975;28;20041;-69
2023/01/12 08:37:05;;;;;;;9.30;6.70;;;;;;;2.40;100.00;93308.09;5069795;28;20048;-70
2023/01/12 08:39:34;;;;;;;8.02;4.30;;;;;;;2.50;100.00;93333.28;5069905;28;20097;-69
2023/01/12 08:42:00;;;;;;;5.43;3.25;;;;;;;2.42;100.00;93338.38;5069813;28;20060;-69
2023/01/12 08:44:31;;;;;;;9.80;6.13;;;;;;;2.19;100.00;93269.72;5069483;28;20500;-68
2023/01/12 08:46:58;;;;;;;11.07;5.75;;;;;;;2.69;100.00;93333.97;5069484;28;20076;-67
2023/01/12 08:49:27;;;;;;;11.90;6.85;;;;;;;2.83;100.00;93330.00;5069358;28;20551;-67
2023/01/12 08:51:56;;;;;;;10.75;6.95;;;;;;;2.83;100.00;93335.06;5069461;28;20451;-69
2023/01/12 08:54:24;;;;;;;13.48;8.77;;;;;;;2.91;100.00;93329.19;5069093;28;20504;-69
2023/01/12 08:56:52;;;;;;;11.18;7.40;;;;;;;2.74;100.00;93329.19;5069204;28;20040;-69
2023/01/12 08:59:19;;;;;;;13.10;7.70;;;;;;;2.89;100.00;93331.09;5069072;28;20043;-68
2023/01/12 09:01:45;;;;;;;8.30;6.18;;;;;;;2.88;100.00;93317.59;5069186;28;20469;-69
2023/01/12 09:04:12;;;;;;;15.20;9.13;;;;;;;3.09;100.00;93330.78;5069483;28;20534;-70
2023/01/12 09:06:41;;;;;;;12.85;8.70;;;;;;;3.18;100.00;93338.22;5068930;28;20048;-69
2023/01/12 09:09:12;;;;;;;13.90;9.98;;;;;;;3.23;100.00;93319.19;5046997;28;20073;-69
2023/01/12 09:11:41;;;;;;;11.80;8.55;;;;;;;3.12;100.00;93328.69;5049280;28;20451;-69
2023/01/12 09:14:08;;;;;;;10.45;7.00;;;;;;;3.00;100.00;93322.38;5049318;28;20037;-69
2023/01/12 09:16:35;;;;;;;12.15;8.43;;;;;;;3.00;100.00;93322.38;5049134;28;20456;-69
2023/01/12 09:19:02;;;;;;;15.25;8.90;;;;;;;3.19;100.00;93322.03;5062944;28;20094;-69
2023/01/12 09:21:31;;;;;;;14.48;10.52;;;;;;;3.32;100.00;93325.81;5068751;28;20098;-69
2023/01/12 09:24:01;;;;;;;12.93;7.93;;;;;;;3.25;100.00;93323.13;5068951;28;20067;-69
2023/01/12 09:26:31;;;;;;;14.50;9.90;;;;;;;3.40;100.00;93318.19;5056567;28;20103;-69
2023/01/12 09:28:59;;;;;;;8.20;6.55;;;;;;;3.52;100.00;93328.00;5054088;28;20131;-69
2023/01/12 09:31:27;;;;;;;11.68;7.65;;;;;;;3.56;100.00;93324.19;5068965;28;20458;-69
2023/01/12 09:33:54;;;;;;;42.28;23.45;;;;;;;3.64;100.00;93329.22;5069063;28;20094;-68
2023/01/12 09:36:23;;;;;;;45.72;25.02;;;;;;;3.61;100.00;93321.91;5068624;28;20194;-68
2023/01/12 09:38:50;;;;;;;21.98;12.18;;;;;;;3.73;100.00;93338.41;5069103;28;20040;-68
2023/01/12 09:46:57;;;;;;;5.70;4.10;;;;;;;3.18;100.00;93334.88;5068741;28;20048;-69
2023/01/12 09:47:02;;;;;;;11.48;7.00;;;;;;;3.16;100.00;93322.34;5068239;28;20059;-69
2023/01/12 09:49:33;;;;;;;10.05;5.95;;;;;;;3.20;100.00;93317.75;5069028;28;20044;-69
2023/01/12 09:52:12;;;;;;;17.33;6.63;;;;;;;2.88;100.00;93319.38;5068428;28;20500;-68
2023/01/12 09:54:39;;;;;;;8.70;4.68;;;;;;;2.75;100.00;93315.56;5069092;28;20048;-68
2023/01/12 09:57:16;;;;;;;10.40;5.32;;;;;;;2.72;100.00;93307.50;5067605;28;20083;-69
2023/01/12 09:59:55;;;;;;;10.00;4.25;;;;;;;2.70;100.00;93317.78;5068602;28;20048;-68
2023/01/12 10:02:22;;;;;;;4.65;3.25;;;;;;;2.53;100.00;93310.16;5046316;28;20113;-68
2023/01/12 10:04:51;;;;;;;6.53;4.05;;;;;;;2.43;100.00;93316.31;5068425;28;20057;-69
2023/01/12 10:07:18;;;;;;;7.88;4.97;;;;;;;2.46;100.00;93313.50;5068997;28;20102;-69
2023/01/12 10:09:45;;;;;;;9.05;5.05;;;;;;;2.69;100.00;93323.81;5069104;28;20059;-69
2023/01/12 10:12:22;;;;;;;5.85;4.05;;;;;;;2.56;100.00;93328.53;5068977;28;20098;-69
2023/01/12 10:15:08;;;;;;;7.57;4.78;;;;;;;2.58;100.00;93319.81;5068738;28;20036;-69
2023/01/12 10:17:43;;;;;;;4.40;3.03;;;;;;;2.59;100.00;93318.09;5068815;28;20049;-69
2023/01/12 10:20:17;;;;;;;14.73;5.43;;;;;;;2.86;100.00;93316.97;5068976;28;20048;-69
2023/01/12 10:22:47;;;;;;;7.13;4.28;;;;;;;2.70;100.00;93316.97;5068818;28;20458;-69
2023/01/12 10:25:23;;;;;;;5.88;3.50;;;;;;;2.59;100.00;93316.34;5068613;28;20088;-69
2023/01/12 10:27:52;;;;;;;5.80;3.90;;;;;;;2.64;100.00;93331.88;5068429;28;20070;-69
2023/01/12 10:30:26;;;;;;;3.92;2.78;;;;;;;2.65;100.00;93320.78;5068830;28;20049;-69
2023/01/12 10:32:52;;;;;;;8.45;3.83;;;;;;;2.75;100.00;93317.31;5068889;28;20048;-69
2023/01/12 10:35:21;;;;;;;11.30;4.30;;;;;;;2.61;100.00;93314.47;5068360;28;20053;-69
2023/01/12 10:37:51;;;;;;;8.68;4.68;;;;;;;2.60;100.00;93312.06;5068340;28;20145;-69
2023/01/12 10:40:25;;;;;;;7.50;5.60;;;;;;;2.47;100.00;93315.88;5069213;28;20044;-69
2023/01/12 10:45:42;;;;;;;6.57;4.78;;;;;;;2.35;100.00;93309.50;5051887;28;20102;-69
2023/01/12 10:48:19;;;;;;;4.00;3.13;;;;;;;2.23;100.00;93299.66;5072263;28;20041;-69
2023/01/12 10:50:57;;;;;;;4.28;3.28;;;;;;;2.16;100.00;93305.53;5072303;28;20041;-69
2023/01/12 10:53:30;;;;;;;5.03;3.50;;;;;;;2.06;100.00;93306.44;5072404;28;20388;-70
2023/01/12 10:56:01;;;;;;;5.57;4.20;;;;;;;2.12;100.00;93310.91;5071754;28;20044;-69
2023/01/12 10:58:32;;;;;;;6.03;4.40;;;;;;;2.16;100.00;93303.78;5072272;28;20052;-70
2023/01/12 11:01:00;;;;;;;6.70;4.85;;;;;;;2.11;100.00;93305.97;5072392;28;20044;-69
2023/01/12 11:03:33;;;;;;;10.23;7.15;;;;;;;1.91;100.00;93292.78;5071564;28;20542;-69
2023/01/12 11:06:22;;;;;;;12.73;8.60;;;;;;;2.07;100.00;93297.09;5072195;28;20045;-69
2023/01/12 11:08:49;;;;;;;5.13;3.92;;;;;;;2.11;100.00;93300.91;5071833;28;20493;-69
2023/01/12 11:11:32;;;;;;;10.00;6.30;;;;;;;1.91;100.00;93297.84;5071984;28;20459;-69
2023/01/12 11:14:01;;;;;;;13.07;8.35;;;;;;;1.89;100.00;93302.28;5071510;28;20067;-69
2023/01/12 11:16:32;;;;;;;13.32;9.27;;;;;;;1.75;100.00;93286.72;5071735;28;20048;-69
2023/01/12 11:19:15;;;;;;;4.97;3.72;;;;;;;1.69;100.00;93300.00;5071892;28;20045;-69
2023/01/12 11:21:46;;;;;;;5.95;4.88;;;;;;;1.80;100.00;93294.66;5071876;28;20122;-69
2023/01/12 11:24:22;;;;;;;4.57;3.55;;;;;;;2.00;100.00;93294.41;5071299;28;20088;-69
2023/01/12 11:26:55;;;;;;;8.18;5.25;;;;;;;2.00;100.00;93295.19;5071586;28;20460;-69
2023/01/12 11:29:41;;;;;;;7.13;4.53;;;;;;;1.92;100.00;93281.69;5071638;28;20126;-69
2023/01/12 11:32:16;;;;;;;6.30;4.93;;;;;;;2.00;100.00;93289.34;5070980;28;20048;-69
2023/01/12 11:34:55;;;;;;;8.23;5.15;;;;;;;2.07;100.00;93289.50;5071784;28;20126;-69
2023/01/12 11:37:23;;;;;;;7.80;4.70;;;;;;;1.89;100.00;93290.41;5071361;28;20048;-69
2023/01/12 11:39:53;;;;;;;4.65;3.40;;;;;;;1.94;100.00;93288.19;5071391;28;20062;-69
2023/01/12 11:45:14;;;;;;;16.85;9.93;;;;;;;2.12;100.00;93287.28;5070900;28;20072;-69
2023/01/12 11:47:47;;;;;;;26.02;12.15;;;;;;;1.96;100.00;93286.31;5071254;28;20040;-68
2023/01/12 11:50:17;;;;;;;13.98;8.68;;;;;;;1.96;100.00;93277.91;5070678;28;20048;-69
2023/01/12 11:52:44;;;;;;;15.82;8.73;;;;;;;2.11;100.00;93281.44;5070267;28;20127;-69
2023/01/12 11:55:15;;;;;;;20.40;11.75;;;;;;;2.09;100.00;93280.78;5071318;28;20088;-69
2023/01/12 11:57:57;;;;;;;9.68;6.85;;;;;;;2.14;100.00;93277.81;5070901;28;20135;-69
2023/01/12 12:00:37;;;;;;;11.32;7.88;;;;;;;2.24;100.00;93275.13;5070959;28;20496;-69
2023/01/12 12:03:27;;;;;;;10.25;6.32;;;;;;;2.27;100.00;93270.53;5071221;28;20074;-69
2023/01/12 12:06:04;;;;;;;15.48;7.47;;;;;;;2.41;100.00;93278.47;5070378;28;20052;-69
2023/01/12 12:08:44;;;;;;;8.93;6.00;;;;;;;2.50;100.00;93277.50;5065864;28;20443;-69